GOAD weather

Goads field
Bradford, Arkansas, United States

Public forecast

Using degrees Fahrenheit for public forecast. Weather courtesy of forecast.io.

Closest aviation weather report (METAR) to Goads field

Closest report is Newport Regional Airport, 17.4 nm (32.2 km) NE. Retrieved UTC (0 seconds ago):

Closest aviation forecast (TAF) to Goads field

Closest forecast is Jonesboro Municipal Airport, 44.6 nm (82.6 km) NE. Retrieved 2020/01/17 18:39 UTC (0 seconds ago):

TAF KJBR 171736Z 1718/1818 05015KT P6SM OVC080 FM172100 09009KT P6SM OVC045 FM180300 14010KT P6SM VCSH OVC025 WS020/18045KT FM180500 18016G25KT 4SM -SHRA OVC010 WS020/18045KT FM181500 24018G25KT P6SM OVC025